sensor_id;sensor_type;location;lat;lon;timestamp;P1;durP1;ratioP1;P2;durP2;ratioP2
5133;SDS011;2585;48.696;10.066;2024-01-15T00:00:16;46.15;;;18.23;;
5133;SDS011;2585;48.696;10.066;2024-01-15T00:02:44;42.38;;;15.95;;
5133;SDS011;2585;48.696;10.066;2024-01-15T00:05:10;45.03;;;17.35;;
5133;SDS011;2585;48.696;10.066;2024-01-15T00:07:37;37.90;;;15.13;;
5133;SDS011;2585;48.696;10.066;2024-01-15T00:10:04;39.40;;;14.63;;
5133;SDS011;2585;48.696;10.066;2024-01-15T00:12:32;41.05;;;14.88;;
5133;SDS011;2585;48.696;10.066;2024-01-15T00:14:59;46.75;;;16.50;;
5133;SDS011;2585;48.696;10.066;2024-01-15T00:17:26;42.60;;;15.07;;
5133;SDS011;2585;48.696;10.066;2024-01-15T00:19:53;38.53;;;15.70;;
5133;SDS011;2585;48.696;10.066;2024-01-15T00:22:19;35.00;;;13.73;;
5133;SDS011;2585;48.696;10.066;2024-01-15T00:24:46;42.78;;;15.05;;
5133;SDS011;2585;48.696;10.066;2024-01-15T00:27:13;42.95;;;14.85;;
5133;SDS011;2585;48.696;10.066;2024-01-15T00:29:40;40.20;;;14.85;;
5133;SDS011;2585;48.696;10.066;2024-01-15T00:32:07;44.67;;;16.42;;
5133;SDS011;2585;48.696;10.066;2024-01-15T00:34:34;43.65;;;15.70;;
5133;SDS011;2585;48.696;10.066;2024-01-15T00:37:01;39.42;;;14.80;;
5133;SDS011;2585;48.696;10.066;2024-01-15T00:39:27;45.63;;;16.80;;
5133;SDS011;2585;48.696;10.066;2024-01-15T00:41:54;45.55;;;16.77;;
5133;SDS011;2585;48.696;10.066;2024-01-15T00:44:21;51.58;;;16.42;;
5133;SDS011;2585;48.696;10.066;2024-01-15T00:46:48;47.25;;;16.92;;
5133;SDS011;2585;48.696;10.066;2024-01-15T00:49:15;46.22;;;16.27;;
5133;SDS011;2585;48.696;10.066;2024-01-15T00:51:42;37.70;;;14.30;;
5133;SDS011;2585;48.696;10.066;2024-01-15T00:54:09;39.38;;;15.98;;
5133;SDS011;2585;48.696;10.066;2024-01-15T00:56:36;37.80;;;14.38;;
5133;SDS011;2585;48.696;10.066;2024-01-15T00:59:03;39.20;;;15.73;;
5133;SDS011;2585;48.696;10.066;2024-01-15T01:01:30;36.47;;;14.48;;
5133;SDS011;2585;48.696;10.066;2024-01-15T01:03:57;34.30;;;14.40;;
5133;SDS011;2585;48.696;10.066;2024-01-15T01:06:24;41.55;;;15.85;;
5133;SDS011;2585;48.696;10.066;2024-01-15T01:08:51;36.88;;;14.65;;
5133;SDS011;2585;48.696;10.066;2024-01-15T01:11:18;41.20;;;16.98;;
5133;SDS011;2585;48.696;10.066;2024-01-15T01:13:45;43.17;;;15.20;;
5133;SDS011;2585;48.696;10.066;2024-01-15T01:16:12;44.42;;;16.45;;
5133;SDS011;2585;48.696;10.066;2024-01-15T01:18:38;48.22;;;15.55;;
5133;SDS011;2585;48.696;10.066;2024-01-15T01:21:06;42.83;;;16.27;;
5133;SDS011;2585;48.696;10.066;2024-01-15T01:23:33;45.38;;;15.38;;
5133;SDS011;2585;48.696;10.066;2024-01-15T01:25:59;39.90;;;14.45;;
5133;SDS011;2585;48.696;10.066;2024-01-15T01:28:27;40.72;;;15.00;;
5133;SDS011;2585;48.696;10.066;2024-01-15T01:30:54;32.55;;;14.15;;
5133;SDS011;2585;48.696;10.066;2024-01-15T01:33:21;38.67;;;15.77;;
5133;SDS011;2585;48.696;10.066;2024-01-15T01:35:48;26.77;;;11.82;;
5133;SDS011;2585;48.696;10.066;2024-01-15T01:38:15;39.33;;;13.27;;
5133;SDS011;2585;48.696;10.066;2024-01-15T01:40:42;36.55;;;13.57;;
5133;SDS011;2585;48.696;10.066;2024-01-15T01:43:10;35.45;;;12.60;;
5133;SDS011;2585;48.696;10.066;2024-01-15T01:45:37;31.00;;;11.63;;
5133;SDS011;2585;48.696;10.066;2024-01-15T01:48:05;38.60;;;12.00;;
5133;SDS011;2585;48.696;10.066;2024-01-15T01:50:32;29.70;;;12.15;;
5133;SDS011;2585;48.696;10.066;2024-01-15T01:53:00;25.13;;;12.18;;
5133;SDS011;2585;48.696;10.066;2024-01-15T01:55:30;37.03;;;13.27;;
5133;SDS011;2585;48.696;10.066;2024-01-15T01:57:59;33.33;;;12.02;;
5133;SDS011;2585;48.696;10.066;2024-01-15T02:00:28;30.25;;;11.80;;
5133;SDS011;2585;48.696;10.066;2024-01-15T02:02:55;28.63;;;11.00;;
5133;SDS011;2585;48.696;10.066;2024-01-15T02:05:22;23.38;;;10.50;;
5133;SDS011;2585;48.696;10.066;2024-01-15T02:07:49;23.55;;;11.07;;
5133;SDS011;2585;48.696;10.066;2024-01-15T02:10:16;31.55;;;11.65;;
5133;SDS011;2585;48.696;10.066;2024-01-15T02:12:43;30.27;;;11.95;;
5133;SDS011;2585;48.696;10.066;2024-01-15T02:15:10;33.58;;;12.23;;
5133;SDS011;2585;48.696;10.066;2024-01-15T02:17:56;27.05;;;10.63;;
5133;SDS011;2585;48.696;10.066;2024-01-15T02:20:27;30.75;;;12.10;;
5133;SDS011;2585;48.696;10.066;2024-01-15T02:23:01;25.58;;;10.65;;
5133;SDS011;2585;48.696;10.066;2024-01-15T02:25:39;26.60;;;10.18;;
5133;SDS011;2585;48.696;10.066;2024-01-15T02:28:14;29.40;;;10.68;;
5133;SDS011;2585;48.696;10.066;2024-01-15T02:30:43;27.02;;;11.23;;
5133;SDS011;2585;48.696;10.066;2024-01-15T02:33:10;26.10;;;11.02;;
5133;SDS011;2585;48.696;10.066;2024-01-15T02:35:38;32.08;;;11.20;;
5133;SDS011;2585;48.696;10.066;2024-01-15T02:38:05;40.70;;;9.82;;
5133;SDS011;2585;48.696;10.066;2024-01-15T02:40:33;27.75;;;8.80;;
5133;SDS011;2585;48.696;10.066;2024-01-15T02:43:00;27.77;;;9.70;;
5133;SDS011;2585;48.696;10.066;2024-01-15T02:45:27;24.25;;;10.90;;
5133;SDS011;2585;48.696;10.066;2024-01-15T02:47:54;26.08;;;9.63;;
5133;SDS011;2585;48.696;10.066;2024-01-15T02:50:21;25.67;;;10.80;;
5133;SDS011;2585;48.696;10.066;2024-01-15T02:52:48;22.85;;;9.40;;
5133;SDS011;2585;48.696;10.066;2024-01-15T02:55:15;23.88;;;9.60;;
5133;SDS011;2585;48.696;10.066;2024-01-15T02:57:42;27.42;;;10.57;;
5133;SDS011;2585;48.696;10.066;2024-01-15T03:00:09;23.92;;;10.07;;
5133;SDS011;2585;48.696;10.066;2024-01-15T03:02:37;30.05;;;11.68;;
5133;SDS011;2585;48.696;10.066;2024-01-15T03:05:13;24.58;;;10.07;;
5133;SDS011;2585;48.696;10.066;2024-01-15T03:07:40;22.10;;;9.60;;
5133;SDS011;2585;48.696;10.066;2024-01-15T03:10:07;27.33;;;10.23;;
5133;SDS011;2585;48.696;10.066;2024-01-15T03:12:34;28.02;;;10.10;;
5133;SDS011;2585;48.696;10.066;2024-01-15T03:15:01;25.25;;;10.00;;
5133;SDS011;2585;48.696;10.066;2024-01-15T03:17:28;28.85;;;9.60;;
5133;SDS011;2585;48.696;10.066;2024-01-15T03:19:54;21.30;;;8.80;;
5133;SDS011;2585;48.696;10.066;2024-01-15T03:22:22;23.63;;;9.60;;
5133;SDS011;2585;48.696;10.066;2024-01-15T03:24:48;25.48;;;9.65;;
5133;SDS011;2585;48.696;10.066;2024-01-15T03:27:15;20.83;;;9.55;;
5133;SDS011;2585;48.696;10.066;2024-01-15T03:29:42;26.50;;;9.98;;
5133;SDS011;2585;48.696;10.066;2024-01-15T03:32:09;26.27;;;9.38;;
5133;SDS011;2585;48.696;10.066;2024-01-15T03:34:36;25.63;;;8.68;;
5133;SDS011;2585;48.696;10.066;2024-01-15T03:37:03;21.83;;;8.85;;
5133;SDS011;2585;48.696;10.066;2024-01-15T03:39:30;25.48;;;10.32;;
5133;SDS011;2585;48.696;10.066;2024-01-15T03:41:57;22.17;;;9.15;;
5133;SDS011;2585;48.696;10.066;2024-01-15T03:44:24;19.85;;;8.82;;
5133;SDS011;2585;48.696;10.066;2024-01-15T03:46:51;22.75;;;9.60;;
5133;SDS011;2585;48.696;10.066;2024-01-15T03:49:17;22.83;;;9.00;;
5133;SDS011;2585;48.696;10.066;2024-01-15T03:51:44;21.33;;;10.23;;
5133;SDS011;2585;48.696;10.066;2024-01-15T03:54:12;21.70;;;9.32;;
5133;SDS011;2585;48.696;10.066;2024-01-15T03:56:38;22.38;;;9.68;;
5133;SDS011;2585;48.696;10.066;2024-01-15T03:59:05;22.70;;;8.68;;
5133;SDS011;2585;48.696;10.066;2024-01-15T04:01:32;23.85;;;9.27;;
5133;SDS011;2585;48.696;10.066;2024-01-15T04:03:59;20.23;;;9.05;;
5133;SDS011;2585;48.696;10.066;2024-01-15T04:06:26;23.98;;;8.35;;
5133;SDS011;2585;48.696;10.066;2024-01-15T04:08:53;20.92;;;8.70;;
5133;SDS011;2585;48.696;10.066;2024-01-15T04:11:19;19.95;;;8.38;;
5133;SDS011;2585;48.696;10.066;2024-01-15T04:13:46;23.33;;;9.25;;
5133;SDS011;2585;48.696;10.066;2024-01-15T04:16:13;20.23;;;7.80;;
5133;SDS011;2585;48.696;10.066;2024-01-15T04:18:40;14.90;;;6.47;;
5133;SDS011;2585;48.696;10.066;2024-01-15T04:21:07;21.25;;;7.60;;
5133;SDS011;2585;48.696;10.066;2024-01-15T04:23:33;19.77;;;8.00;;
5133;SDS011;2585;48.696;10.066;2024-01-15T04:26:00;19.08;;;8.18;;
5133;SDS011;2585;48.696;10.066;2024-01-15T04:28:27;23.02;;;8.38;;
5133;SDS011;2585;48.696;10.066;2024-01-15T04:30:54;23.70;;;8.50;;
5133;SDS011;2585;48.696;10.066;2024-01-15T04:33:21;16.85;;;7.47;;
5133;SDS011;2585;48.696;10.066;2024-01-15T04:35:48;19.85;;;8.15;;
5133;SDS011;2585;48.696;10.066;2024-01-15T04:38:15;18.48;;;6.68;;
5133;SDS011;2585;48.696;10.066;2024-01-15T04:40:42;19.63;;;7.45;;
5133;SDS011;2585;48.696;10.066;2024-01-15T04:43:09;15.52;;;6.82;;
5133;SDS011;2585;48.696;10.066;2024-01-15T04:45:36;16.27;;;6.30;;
5133;SDS011;2585;48.696;10.066;2024-01-15T04:48:03;17.02;;;7.15;;
5133;SDS011;2585;48.696;10.066;2024-01-15T04:50:30;20.30;;;6.28;;
5133;SDS011;2585;48.696;10.066;2024-01-15T04:52:57;17.00;;;7.30;;
5133;SDS011;2585;48.696;10.066;2024-01-15T04:55:23;14.68;;;6.57;;
5133;SDS011;2585;48.696;10.066;2024-01-15T04:57:50;22.20;;;7.78;;
5133;SDS011;2585;48.696;10.066;2024-01-15T05:00:17;19.60;;;6.95;;
5133;SDS011;2585;48.696;10.066;2024-01-15T05:02:44;18.60;;;7.05;;
5133;SDS011;2585;48.696;10.066;2024-01-15T05:05:11;23.65;;;8.60;;
5133;SDS011;2585;48.696;10.066;2024-01-15T05:07:38;14.50;;;7.03;;
5133;SDS011;2585;48.696;10.066;2024-01-15T05:10:04;20.77;;;8.23;;
5133;SDS011;2585;48.696;10.066;2024-01-15T05:12:33;19.00;;;7.93;;
5133;SDS011;2585;48.696;10.066;2024-01-15T05:15:00;24.83;;;7.93;;
5133;SDS011;2585;48.696;10.066;2024-01-15T05:17:27;20.27;;;7.70;;
5133;SDS011;2585;48.696;10.066;2024-01-15T05:19:54;20.17;;;8.20;;
5133;SDS011;2585;48.696;10.066;2024-01-15T05:22:21;21.58;;;8.85;;
5133;SDS011;2585;48.696;10.066;2024-01-15T05:24:50;19.98;;;8.82;;
5133;SDS011;2585;48.696;10.066;2024-01-15T05:27:17;17.15;;;7.13;;
5133;SDS011;2585;48.696;10.066;2024-01-15T05:29:44;20.23;;;6.90;;
5133;SDS011;2585;48.696;10.066;2024-01-15T05:32:11;23.70;;;8.60;;
5133;SDS011;2585;48.696;10.066;2024-01-15T05:34:38;17.38;;;7.55;;
5133;SDS011;2585;48.696;10.066;2024-01-15T05:37:05;20.85;;;7.68;;
5133;SDS011;2585;48.696;10.066;2024-01-15T05:39:32;16.95;;;8.40;;
5133;SDS011;2585;48.696;10.066;2024-01-15T05:41:58;22.30;;;7.60;;
5133;SDS011;2585;48.696;10.066;2024-01-15T05:44:26;22.33;;;8.85;;
5133;SDS011;2585;48.696;10.066;2024-01-15T05:46:53;18.40;;;7.95;;
5133;SDS011;2585;48.696;10.066;2024-01-15T05:49:20;18.98;;;7.43;;
5133;SDS011;2585;48.696;10.066;2024-01-15T05:51:47;20.88;;;8.00;;
5133;SDS011;2585;48.696;10.066;2024-01-15T05:54:15;23.77;;;8.45;;
5133;SDS011;2585;48.696;10.066;2024-01-15T05:56:41;20.35;;;8.02;;
5133;SDS011;2585;48.696;10.066;2024-01-15T05:59:08;20.63;;;7.05;;
5133;SDS011;2585;48.696;10.066;2024-01-15T06:01:38;15.57;;;8.38;;
5133;SDS011;2585;48.696;10.066;2024-01-15T06:04:05;26.63;;;8.38;;
5133;SDS011;2585;48.696;10.066;2024-01-15T06:06:33;24.02;;;7.53;;
5133;SDS011;2585;48.696;10.066;2024-01-15T06:08:59;17.20;;;7.25;;
5133;SDS011;2585;48.696;10.066;2024-01-15T06:11:32;18.67;;;7.30;;
5133;SDS011;2585;48.696;10.066;2024-01-15T06:13:59;21.77;;;8.52;;
5133;SDS011;2585;48.696;10.066;2024-01-15T06:16:29;18.42;;;7.78;;
5133;SDS011;2585;48.696;10.066;2024-01-15T06:18:55;17.88;;;7.20;;
5133;SDS011;2585;48.696;10.066;2024-01-15T06:21:22;19.73;;;7.20;;
5133;SDS011;2585;48.696;10.066;2024-01-15T06:23:49;21.40;;;8.50;;
5133;SDS011;2585;48.696;10.066;2024-01-15T06:26:16;20.88;;;8.38;;
5133;SDS011;2585;48.696;10.066;2024-01-15T06:28:43;22.80;;;9.63;;
5133;SDS011;2585;48.696;10.066;2024-01-15T06:31:10;18.45;;;8.05;;
5133;SDS011;2585;48.696;10.066;2024-01-15T06:33:37;16.55;;;7.65;;
5133;SDS011;2585;48.696;10.066;2024-01-15T06:36:04;19.02;;;7.32;;
5133;SDS011;2585;48.696;10.066;2024-01-15T06:38:32;23.45;;;8.00;;
5133;SDS011;2585;48.696;10.066;2024-01-15T06:40:58;24.63;;;9.10;;
5133;SDS011;2585;48.696;10.066;2024-01-15T06:43:25;16.25;;;7.25;;
5133;SDS011;2585;48.696;10.066;2024-01-15T06:45:52;14.70;;;6.70;;
5133;SDS011;2585;48.696;10.066;2024-01-15T06:48:19;21.95;;;7.78;;
5133;SDS011;2585;48.696;10.066;2024-01-15T06:50:46;16.25;;;6.40;;
5133;SDS011;2585;48.696;10.066;2024-01-15T06:53:13;17.65;;;7.43;;
5133;SDS011;2585;48.696;10.066;2024-01-15T06:55:40;16.52;;;7.20;;
5133;SDS011;2585;48.696;10.066;2024-01-15T06:58:06;16.67;;;7.32;;
5133;SDS011;2585;48.696;10.066;2024-01-15T07:00:33;15.18;;;7.28;;
5133;SDS011;2585;48.696;10.066;2024-01-15T07:03:00;16.33;;;7.20;;
5133;SDS011;2585;48.696;10.066;2024-01-15T07:05:27;14.93;;;7.38;;
5133;SDS011;2585;48.696;10.066;2024-01-15T07:07:56;17.10;;;7.10;;
5133;SDS011;2585;48.696;10.066;2024-01-15T07:10:23;15.82;;;7.13;;
5133;SDS011;2585;48.696;10.066;2024-01-15T07:12:50;18.25;;;7.63;;
5133;SDS011;2585;48.696;10.066;2024-01-15T07:15:16;17.05;;;7.40;;
5133;SDS011;2585;48.696;10.066;2024-01-15T07:17:43;15.40;;;6.78;;
5133;SDS011;2585;48.696;10.066;2024-01-15T07:20:10;16.77;;;6.93;;
5133;SDS011;2585;48.696;10.066;2024-01-15T07:22:37;12.32;;;6.47;;
5133;SDS011;2585;48.696;10.066;2024-01-15T07:25:04;19.58;;;7.72;;
5133;SDS011;2585;48.696;10.066;2024-01-15T07:27:33;16.73;;;8.38;;
5133;SDS011;2585;48.696;10.066;2024-01-15T07:30:00;18.20;;;7.78;;
5133;SDS011;2585;48.696;10.066;2024-01-15T07:32:28;12.88;;;7.50;;
5133;SDS011;2585;48.696;10.066;2024-01-15T07:34:55;16.67;;;6.60;;
5133;SDS011;2585;48.696;10.066;2024-01-15T07:37:22;19.75;;;7.38;;
5133;SDS011;2585;48.696;10.066;2024-01-15T07:39:49;13.68;;;5.80;;
5133;SDS011;2585;48.696;10.066;2024-01-15T07:42:17;10.40;;;5.28;;
5133;SDS011;2585;48.696;10.066;2024-01-15T07:44:44;17.23;;;8.55;;
5133;SDS011;2585;48.696;10.066;2024-01-15T07:47:11;19.52;;;7.22;;
5133;SDS011;2585;48.696;10.066;2024-01-15T07:49:38;16.83;;;6.95;;
5133;SDS011;2585;48.696;10.066;2024-01-15T07:52:05;18.55;;;6.72;;
5133;SDS011;2585;48.696;10.066;2024-01-15T07:54:32;16.75;;;7.50;;
5133;SDS011;2585;48.696;10.066;2024-01-15T07:57:00;12.15;;;6.25;;
5133;SDS011;2585;48.696;10.066;2024-01-15T07:59:29;13.85;;;7.05;;
5133;SDS011;2585;48.696;10.066;2024-01-15T08:01:56;15.68;;;6.88;;
5133;SDS011;2585;48.696;10.066;2024-01-15T08:04:24;15.32;;;6.90;;
5133;SDS011;2585;48.696;10.066;2024-01-15T08:06:51;10.95;;;6.55;;
5133;SDS011;2585;48.696;10.066;2024-01-15T08:09:19;12.57;;;6.32;;
5133;SDS011;2585;48.696;10.066;2024-01-15T08:11:46;15.50;;;7.07;;
5133;SDS011;2585;48.696;10.066;2024-01-15T08:14:12;10.98;;;6.40;;
5133;SDS011;2585;48.696;10.066;2024-01-15T08:16:39;19.10;;;9.02;;
5133;SDS011;2585;48.696;10.066;2024-01-15T08:19:06;27.58;;;11.85;;
5133;SDS011;2585;48.696;10.066;2024-01-15T08:21:34;32.40;;;13.98;;
5133;SDS011;2585;48.696;10.066;2024-01-15T08:24:01;24.70;;;11.90;;
5133;SDS011;2585;48.696;10.066;2024-01-15T08:26:29;19.52;;;8.20;;
5133;SDS011;2585;48.696;10.066;2024-01-15T08:28:56;15.38;;;6.20;;
5133;SDS011;2585;48.696;10.066;2024-01-15T08:31:23;11.88;;;7.20;;
5133;SDS011;2585;48.696;10.066;2024-01-15T08:33:50;16.50;;;6.55;;
5133;SDS011;2585;48.696;10.066;2024-01-15T08:36:17;19.08;;;7.97;;
5133;SDS011;2585;48.696;10.066;2024-01-15T08:38:44;19.00;;;7.18;;
5133;SDS011;2585;48.696;10.066;2024-01-15T08:41:11;12.73;;;5.65;;
5133;SDS011;2585;48.696;10.066;2024-01-15T08:43:38;12.15;;;6.50;;
5133;SDS011;2585;48.696;10.066;2024-01-15T08:46:05;13.15;;;6.43;;
5133;SDS011;2585;48.696;10.066;2024-01-15T08:48:33;16.77;;;7.35;;
5133;SDS011;2585;48.696;10.066;2024-01-15T08:51:00;8.70;;;5.82;;
5133;SDS011;2585;48.696;10.066;2024-01-15T08:53:27;12.32;;;6.32;;
5133;SDS011;2585;48.696;10.066;2024-01-15T08:55:54;12.13;;;5.40;;
5133;SDS011;2585;48.696;10.066;2024-01-15T08:58:23;18.27;;;6.15;;
5133;SDS011;2585;48.696;10.066;2024-01-15T09:00:50;13.82;;;6.10;;
5133;SDS011;2585;48.696;10.066;2024-01-15T09:03:18;13.00;;;5.93;;
5133;SDS011;2585;48.696;10.066;2024-01-15T09:05:45;12.90;;;6.47;;
5133;SDS011;2585;48.696;10.066;2024-01-15T09:08:12;15.30;;;6.20;;
5133;SDS011;2585;48.696;10.066;2024-01-15T09:10:39;13.43;;;5.65;;
5133;SDS011;2585;48.696;10.066;2024-01-15T09:13:07;13.68;;;6.43;;
5133;SDS011;2585;48.696;10.066;2024-01-15T09:15:34;14.68;;;5.43;;
5133;SDS011;2585;48.696;10.066;2024-01-15T09:18:01;10.98;;;5.80;;
5133;SDS011;2585;48.696;10.066;2024-01-15T09:20:33;11.68;;;5.50;;
5133;SDS011;2585;48.696;10.066;2024-01-15T09:23:00;11.73;;;6.20;;
5133;SDS011;2585;48.696;10.066;2024-01-15T09:25:26;11.30;;;5.07;;
5133;SDS011;2585;48.696;10.066;2024-01-15T09:27:53;9.20;;;5.00;;
5133;SDS011;2585;48.696;10.066;2024-01-15T09:30:21;14.82;;;5.53;;
5133;SDS011;2585;48.696;10.066;2024-01-15T09:32:47;9.18;;;4.63;;
5133;SDS011;2585;48.696;10.066;2024-01-15T09:35:15;11.63;;;4.85;;
5133;SDS011;2585;48.696;10.066;2024-01-15T09:37:42;11.27;;;5.00;;
5133;SDS011;2585;48.696;10.066;2024-01-15T09:40:13;11.95;;;4.82;;
5133;SDS011;2585;48.696;10.066;2024-01-15T09:42:42;15.80;;;6.15;;
5133;SDS011;2585;48.696;10.066;2024-01-15T09:45:09;15.57;;;5.40;;
5133;SDS011;2585;48.696;10.066;2024-01-15T09:47:37;12.27;;;4.95;;
5133;SDS011;2585;48.696;10.066;2024-01-15T09:50:09;12.52;;;5.85;;
5133;SDS011;2585;48.696;10.066;2024-01-15T09:52:37;9.70;;;5.10;;
5133;SDS011;2585;48.696;10.066;2024-01-15T09:55:05;12.95;;;5.30;;
5133;SDS011;2585;48.696;10.066;2024-01-15T09:57:32;7.53;;;4.53;;
5133;SDS011;2585;48.696;10.066;2024-01-15T09:59:59;9.30;;;4.72;;
5133;SDS011;2585;48.696;10.066;2024-01-15T10:02:30;14.65;;;4.55;;
5133;SDS011;2585;48.696;10.066;2024-01-15T10:04:57;10.98;;;3.92;;
5133;SDS011;2585;48.696;10.066;2024-01-15T10:07:24;9.93;;;4.72;;
5133;SDS011;2585;48.696;10.066;2024-01-15T10:09:52;13.48;;;4.70;;
5133;SDS011;2585;48.696;10.066;2024-01-15T10:12:20;9.60;;;4.75;;
5133;SDS011;2585;48.696;10.066;2024-01-15T10:14:50;9.55;;;5.55;;
5133;SDS011;2585;48.696;10.066;2024-01-15T10:17:17;8.65;;;4.35;;
5133;SDS011;2585;48.696;10.066;2024-01-15T10:19:47;8.10;;;4.57;;
5133;SDS011;2585;48.696;10.066;2024-01-15T10:22:16;11.70;;;3.90;;
5133;SDS011;2585;48.696;10.066;2024-01-15T10:24:46;10.05;;;4.93;;
5133;SDS011;2585;48.696;10.066;2024-01-15T10:27:14;11.05;;;4.57;;
5133;SDS011;2585;48.696;10.066;2024-01-15T10:29:42;12.20;;;5.97;;
5133;SDS011;2585;48.696;10.066;2024-01-15T10:32:10;10.90;;;4.95;;
5133;SDS011;2585;48.696;10.066;2024-01-15T10:34:38;8.18;;;4.30;;
5133;SDS011;2585;48.696;10.066;2024-01-15T10:37:10;8.32;;;4.35;;
5133;SDS011;2585;48.696;10.066;2024-01-15T10:39:37;6.80;;;4.00;;
5133;SDS011;2585;48.696;10.066;2024-01-15T10:42:05;13.48;;;5.97;;
5133;SDS011;2585;48.696;10.066;2024-01-15T10:44:33;5.75;;;3.25;;
5133;SDS011;2585;48.696;10.066;2024-01-15T10:47:01;14.43;;;5.05;;
5133;SDS011;2585;48.696;10.066;2024-01-15T10:49:27;5.45;;;3.80;;
5133;SDS011;2585;48.696;10.066;2024-01-15T10:52:00;6.38;;;3.85;;
5133;SDS011;2585;48.696;10.066;2024-01-15T10:54:29;8.00;;;3.58;;
5133;SDS011;2585;48.696;10.066;2024-01-15T10:56:56;6.97;;;5.07;;
5133;SDS011;2585;48.696;10.066;2024-01-15T10:59:23;5.85;;;3.83;;
5133;SDS011;2585;48.696;10.066;2024-01-15T11:01:51;7.63;;;4.13;;
5133;SDS011;2585;48.696;10.066;2024-01-15T11:04:21;9.95;;;4.03;;
5133;SDS011;2585;48.696;10.066;2024-01-15T11:06:52;6.68;;;3.47;;
5133;SDS011;2585;48.696;10.066;2024-01-15T11:09:21;6.00;;;3.50;;
5133;SDS011;2585;48.696;10.066;2024-01-15T11:11:51;7.53;;;3.60;;
5133;SDS011;2585;48.696;10.066;2024-01-15T11:14:35;7.07;;;3.15;;
5133;SDS011;2585;48.696;10.066;2024-01-15T11:17:02;20.80;;;5.93;;
5133;SDS011;2585;48.696;10.066;2024-01-15T11:19:36;7.32;;;4.07;;
5133;SDS011;2585;48.696;10.066;2024-01-15T11:22:09;11.13;;;4.15;;
5133;SDS011;2585;48.696;10.066;2024-01-15T11:24:39;5.07;;;3.50;;
5133;SDS011;2585;48.696;10.066;2024-01-15T11:27:07;4.05;;;3.10;;
5133;SDS011;2585;48.696;10.066;2024-01-15T11:29:38;7.53;;;3.25;;
5133;SDS011;2585;48.696;10.066;2024-01-15T11:32:05;5.28;;;3.40;;
5133;SDS011;2585;48.696;10.066;2024-01-15T11:34:52;6.13;;;2.70;;
5133;SDS011;2585;48.696;10.066;2024-01-15T11:37:26;6.60;;;3.50;;
5133;SDS011;2585;48.696;10.066;2024-01-15T11:39:54;5.93;;;3.38;;
5133;SDS011;2585;48.696;10.066;2024-01-15T11:42:23;9.98;;;3.50;;
5133;SDS011;2585;48.696;10.066;2024-01-15T11:44:49;6.88;;;3.13;;
5133;SDS011;2585;48.696;10.066;2024-01-15T11:47:17;7.80;;;4.15;;
5133;SDS011;2585;48.696;10.066;2024-01-15T11:50:08;9.27;;;3.05;;
5133;SDS011;2585;48.696;10.066;2024-01-15T11:52:38;6.78;;;3.72;;
5133;SDS011;2585;48.696;10.066;2024-01-15T11:55:12;7.63;;;3.95;;
5133;SDS011;2585;48.696;10.066;2024-01-15T11:57:46;8.50;;;4.35;;
5133;SDS011;2585;48.696;10.066;2024-01-15T12:00:16;10.20;;;3.85;;
5133;SDS011;2585;48.696;10.066;2024-01-15T12:02:45;3.97;;;3.15;;
5133;SDS011;2585;48.696;10.066;2024-01-15T12:05:14;5.05;;;3.80;;
5133;SDS011;2585;48.696;10.066;2024-01-15T12:07:43;10.65;;;4.63;;
5133;SDS011;2585;48.696;10.066;2024-01-15T12:15:47;16.13;;;4.50;;
5133;SDS011;2585;48.696;10.066;2024-01-15T12:18:15;7.28;;;4.53;;
5133;SDS011;2585;48.696;10.066;2024-01-15T12:20:44;8.40;;;3.72;;
5133;SDS011;2585;48.696;10.066;2024-01-15T12:23:13;11.95;;;4.10;;
5133;SDS011;2585;48.696;10.066;2024-01-15T12:25:40;6.20;;;3.90;;
5133;SDS011;2585;48.696;10.066;2024-01-15T12:28:07;8.40;;;4.50;;
5133;SDS011;2585;48.696;10.066;2024-01-15T12:30:35;7.15;;;4.50;;
5133;SDS011;2585;48.696;10.066;2024-01-15T12:33:03;5.65;;;3.80;;
5133;SDS011;2585;48.696;10.066;2024-01-15T12:35:31;10.52;;;4.22;;
5133;SDS011;2585;48.696;10.066;2024-01-15T12:38:00;8.05;;;4.50;;
5133;SDS011;2585;48.696;10.066;2024-01-15T12:40:30;8.68;;;4.55;;
5133;SDS011;2585;48.696;10.066;2024-01-15T12:43:03;7.65;;;4.47;;
5133;SDS011;2585;48.696;10.066;2024-01-15T12:45:31;7.70;;;4.40;;
5133;SDS011;2585;48.696;10.066;2024-01-15T12:47:58;12.68;;;4.38;;
5133;SDS011;2585;48.696;10.066;2024-01-15T12:50:26;7.88;;;4.40;;
5133;SDS011;2585;48.696;10.066;2024-01-15T12:52:53;7.72;;;4.35;;
5133;SDS011;2585;48.696;10.066;2024-01-15T12:55:20;10.07;;;4.75;;
5133;SDS011;2585;48.696;10.066;2024-01-15T12:57:47;5.32;;;4.03;;
5133;SDS011;2585;48.696;10.066;2024-01-15T13:00:16;5.50;;;3.70;;
5133;SDS011;2585;48.696;10.066;2024-01-15T13:02:43;7.97;;;4.78;;
5133;SDS011;2585;48.696;10.066;2024-01-15T13:05:10;8.65;;;5.70;;
5133;SDS011;2585;48.696;10.066;2024-01-15T13:07:40;17.58;;;9.68;;
5133;SDS011;2585;48.696;10.066;2024-01-15T13:10:08;13.13;;;7.00;;
5133;SDS011;2585;48.696;10.066;2024-01-15T13:12:37;13.82;;;7.78;;
5133;SDS011;2585;48.696;10.066;2024-01-15T13:15:04;19.42;;;10.77;;
5133;SDS011;2585;48.696;10.066;2024-01-15T13:17:31;11.20;;;5.82;;
5133;SDS011;2585;48.696;10.066;2024-01-15T13:19:58;8.98;;;4.20;;
5133;SDS011;2585;48.696;10.066;2024-01-15T13:22:26;6.60;;;3.88;;
5133;SDS011;2585;48.696;10.066;2024-01-15T13:24:58;6.85;;;3.33;;
5133;SDS011;2585;48.696;10.066;2024-01-15T13:27:25;6.07;;;3.47;;
5133;SDS011;2585;48.696;10.066;2024-01-15T13:29:52;6.38;;;4.00;;
5133;SDS011;2585;48.696;10.066;2024-01-15T13:32:23;5.45;;;3.70;;
5133;SDS011;2585;48.696;10.066;2024-01-15T13:34:54;9.68;;;3.60;;
5133;SDS011;2585;48.696;10.066;2024-01-15T13:37:24;6.65;;;3.88;;
5133;SDS011;2585;48.696;10.066;2024-01-15T13:39:51;6.15;;;2.53;;
5133;SDS011;2585;48.696;10.066;2024-01-15T13:42:19;7.22;;;3.92;;
5133;SDS011;2585;48.696;10.066;2024-01-15T13:44:49;11.57;;;5.25;;
5133;SDS011;2585;48.696;10.066;2024-01-15T13:47:17;6.20;;;3.63;;
5133;SDS011;2585;48.696;10.066;2024-01-15T13:49:43;5.95;;;3.67;;
5133;SDS011;2585;48.696;10.066;2024-01-15T13:52:10;6.70;;;4.10;;
5133;SDS011;2585;48.696;10.066;2024-01-15T13:54:39;7.15;;;4.38;;
5133;SDS011;2585;48.696;10.066;2024-01-15T13:57:16;6.30;;;4.18;;
5133;SDS011;2585;48.696;10.066;2024-01-15T13:59:43;7.32;;;4.80;;
5133;SDS011;2585;48.696;10.066;2024-01-15T14:02:10;9.02;;;4.00;;
5133;SDS011;2585;48.696;10.066;2024-01-15T14:04:39;5.97;;;3.88;;
5133;SDS011;2585;48.696;10.066;2024-01-15T14:07:05;9.15;;;4.57;;
5133;SDS011;2585;48.696;10.066;2024-01-15T14:09:33;7.35;;;3.97;;
5133;SDS011;2585;48.696;10.066;2024-01-15T14:12:00;10.90;;;5.18;;
5133;SDS011;2585;48.696;10.066;2024-01-15T14:14:26;5.80;;;3.80;;
5133;SDS011;2585;48.696;10.066;2024-01-15T14:16:53;8.23;;;4.20;;
5133;SDS011;2585;48.696;10.066;2024-01-15T14:19:20;5.80;;;3.67;;
5133;SDS011;2585;48.696;10.066;2024-01-15T14:21:48;7.10;;;4.00;;
5133;SDS011;2585;48.696;10.066;2024-01-15T14:24:15;6.45;;;4.20;;
5133;SDS011;2585;48.696;10.066;2024-01-15T14:26:44;7.60;;;4.25;;
5133;SDS011;2585;48.696;10.066;2024-01-15T14:29:10;5.88;;;3.80;;
5133;SDS011;2585;48.696;10.066;2024-01-15T14:31:38;7.65;;;4.78;;
5133;SDS011;2585;48.696;10.066;2024-01-15T14:34:05;6.03;;;4.25;;
5133;SDS011;2585;48.696;10.066;2024-01-15T14:36:34;6.85;;;4.90;;
5133;SDS011;2585;48.696;10.066;2024-01-15T14:39:01;16.35;;;7.38;;
5133;SDS011;2585;48.696;10.066;2024-01-15T14:41:28;5.55;;;3.22;;
5133;SDS011;2585;48.696;10.066;2024-01-15T14:43:56;5.63;;;3.65;;
5133;SDS011;2585;48.696;10.066;2024-01-15T14:46:23;5.82;;;3.50;;
5133;SDS011;2585;48.696;10.066;2024-01-15T14:48:50;3.33;;;2.72;;
5133;SDS011;2585;48.696;10.066;2024-01-15T14:51:17;3.97;;;2.50;;
5133;SDS011;2585;48.696;10.066;2024-01-15T14:53:44;5.22;;;3.25;;
5133;SDS011;2585;48.696;10.066;2024-01-15T14:56:11;7.18;;;4.07;;